createdAt,value
2017-12-29T12:02:40.130Z,461.25
2017-12-29T12:02:40.671Z,461.25
2017-12-29T12:02:41.201Z,461.25
2017-12-29T12:02:41.717Z,461.25
2017-12-29T12:02:42.294Z,461.25
2017-12-29T12:02:42.842Z,466.88
2017-12-29T12:06:54.034Z,551.25
2017-12-29T12:06:54.522Z,540.00
2017-12-29T12:06:55.042Z,523.13
2017-12-29T12:06:55.594Z,483.75
2017-12-29T12:06:56.047Z,326.25
2017-12-29T12:06:56.634Z,253.13
2017-12-29T12:06:57.187Z,230.63
2017-12-29T12:06:57.737Z,202.50
2017-12-29T12:06:58.275Z,180.00
2017-12-29T12:06:58.737Z,196.88
2017-12-29T12:06:59.277Z,258.75
2017-12-29T12:08:43.987Z,590.63
2017-12-29T12:08:44.513Z,590.63
2017-12-29T12:08:45.023Z,590.63
2017-12-29T12:08:45.533Z,590.63
2017-12-29T12:08:46.054Z,590.63
2017-12-29T12:08:46.576Z,590.63
2017-12-29T12:08:47.130Z,590.63
2017-12-29T12:08:47.694Z,590.63
2017-12-29T12:09:40.692Z,579.38
2017-12-29T12:09:41.254Z,579.38
2017-12-29T12:09:41.774Z,579.38
2017-12-29T12:09:42.295Z,579.38
2017-12-29T12:09:42.828Z,579.38
2017-12-29T12:09:43.348Z,579.38
2017-12-29T12:09:43.902Z,579.38
2017-12-29T12:09:44.450Z,579.38
2017-12-29T12:10:36.907Z,573.75
2017-12-29T12:10:37.420Z,573.75
2017-12-29T12:10:37.930Z,573.75
2017-12-29T12:10:38.453Z,568.13
2017-12-29T12:10:38.967Z,568.13
2017-12-29T12:10:39.489Z,568.13
2017-12-29T12:10:40.056Z,568.13
2017-12-29T12:10:40.599Z,568.13
2017-12-29T12:10:41.143Z,568.13
2017-12-29T12:14:03.957Z,495.00
2017-12-29T12:14:04.527Z,495.00
2017-12-29T12:14:05.042Z,495.00
2017-12-29T12:14:05.574Z,495.00
2017-12-29T12:14:06.084Z,500.63
2017-12-29T12:14:06.598Z,500.63
2017-12-29T12:14:07.171Z,500.63
2017-12-29T12:14:07.736Z,500.63
2017-12-29T12:14:08.282Z,500.63
2017-12-29T12:15:51.506Z,506.25
2017-12-29T12:15:52.065Z,506.25
2017-12-29T12:15:52.581Z,506.25
2017-12-29T12:15:53.099Z,506.25
2017-12-29T12:15:53.622Z,506.25
2017-12-29T12:15:54.140Z,506.25
2017-12-29T12:15:54.718Z,506.25
2017-12-29T12:15:55.242Z,506.25
2017-12-29T12:15:55.762Z,506.25
2017-12-29T12:17:38.326Z,461.25
2017-12-29T12:17:38.855Z,416.25
2017-12-29T12:17:39.364Z,371.25
2017-12-29T12:17:39.894Z,360.00
2017-12-29T12:17:40.427Z,354.38
2017-12-29T12:17:40.937Z,371.25
2017-12-29T12:17:41.457Z,393.75
2017-12-29T12:17:41.977Z,410.63
2017-12-29T12:17:42.549Z,405.00
2017-12-29T12:18:35.073Z,472.50
2017-12-29T12:18:35.585Z,472.50
2017-12-29T12:18:36.095Z,478.13
2017-12-29T12:18:36.653Z,472.50
2017-12-29T12:18:37.190Z,472.50
2017-12-29T12:18:37.708Z,478.13
2017-12-29T12:18:38.260Z,472.50
2017-12-29T12:18:38.807Z,472.50
2017-12-29T12:18:39.342Z,472.50
2017-12-29T12:20:21.886Z,455.63
2017-12-29T12:20:22.469Z,455.63
2017-12-29T12:20:22.991Z,455.63
2017-12-29T12:20:23.514Z,455.63
2017-12-29T12:20:24.033Z,455.63
2017-12-29T12:20:24.553Z,455.63
2017-12-29T12:20:25.073Z,455.63
2017-12-29T12:20:25.594Z,455.63
2017-12-29T12:20:26.164Z,455.63
2017-12-29T12:21:19.169Z,438.75
2017-12-29T12:21:19.737Z,438.75
2017-12-29T12:21:20.264Z,433.13
2017-12-29T12:21:20.783Z,433.13
2017-12-29T12:21:21.318Z,433.13
2017-12-29T12:21:21.813Z,433.13
2017-12-29T12:21:22.338Z,438.75
2017-12-29T12:21:22.858Z,438.75
2017-12-29T12:22:15.189Z,427.50
2017-12-29T12:22:15.749Z,427.50
2017-12-29T12:22:16.287Z,427.50
2017-12-29T12:22:16.865Z,427.50
2017-12-29T12:22:17.387Z,427.50
2017-12-29T12:22:17.919Z,427.50
2017-12-29T12:22:18.456Z,421.88
2017-12-29T12:22:19.033Z,421.88
2017-12-29T12:22:19.576Z,427.50
2017-12-29T12:23:13.539Z,416.25
2017-12-29T12:23:14.110Z,416.25
2017-12-29T12:23:14.619Z,416.25
2017-12-29T12:23:15.149Z,410.63
2017-12-29T12:23:15.674Z,410.63
2017-12-29T12:23:16.194Z,410.63
2017-12-29T12:23:16.720Z,410.63
2017-12-29T12:23:17.256Z,410.63
2017-12-29T12:23:17.794Z,410.63
2017-12-29T12:23:18.354Z,410.63
2017-12-29T12:23:18.876Z,410.63
2017-12-29T12:23:19.396Z,410.63
2017-12-29T12:23:19.958Z,410.63
2017-12-29T12:23:20.504Z,410.63
2017-12-29T12:23:21.022Z,410.63
2017-12-29T12:23:21.591Z,410.63
2017-12-29T12:23:22.072Z,416.25
2017-12-29T12:23:22.594Z,416.25
2017-12-29T12:23:23.112Z,410.63
2017-12-29T12:23:23.626Z,410.63
2017-12-29T12:23:24.212Z,416.25
2017-12-29T12:23:24.759Z,410.63
2017-12-29T12:23:25.274Z,410.63
2017-12-29T12:23:25.794Z,410.63
2017-12-29T12:23:26.352Z,410.63
2017-12-29T12:23:26.874Z,416.25
2017-12-29T12:23:27.394Z,416.25
2017-12-29T12:23:27.964Z,410.63
2017-12-29T12:23:28.502Z,410.63
2017-12-29T12:23:29.018Z,410.63
2017-12-29T12:23:29.542Z,410.63
2017-12-29T12:23:30.127Z,416.25
2017-12-29T12:23:30.650Z,405.00
2017-12-29T12:23:31.198Z,405.00
2017-12-29T12:23:31.724Z,410.63
2017-12-29T12:23:32.264Z,410.63
2017-12-29T12:23:32.790Z,416.25
2017-12-29T12:23:33.300Z,410.63
2017-12-29T12:23:33.876Z,410.63
2017-12-29T12:23:34.422Z,410.63
2017-12-29T12:23:34.974Z,410.63
2017-12-29T12:23:35.490Z,410.63
2017-12-29T12:23:36.026Z,410.63
2017-12-29T12:23:36.582Z,410.63
2017-12-29T12:23:37.102Z,410.63
2017-12-29T12:23:37.623Z,410.63
2017-12-29T12:23:38.152Z,416.25
2017-12-29T12:23:38.676Z,410.63
2017-12-29T12:23:39.241Z,405.00
2017-12-29T12:23:39.762Z,405.00
2017-12-29T12:23:40.274Z,405.00
2017-12-29T12:23:40.798Z,405.00
2017-12-29T12:23:41.308Z,410.63
2017-12-29T12:23:41.880Z,405.00
2017-12-29T12:23:42.402Z,410.63
2017-12-29T12:23:42.925Z,405.00
2017-12-29T12:23:43.444Z,405.00
2017-12-29T12:23:43.984Z,405.00
2017-12-29T12:23:44.494Z,410.63
2017-12-29T12:23:45.022Z,410.63
2017-12-29T12:23:45.544Z,405.00
2017-12-29T12:23:46.124Z,410.63
2017-12-29T12:23:46.632Z,405.00
2017-12-29T12:23:47.191Z,405.00
2017-12-29T12:23:47.724Z,410.63
2017-12-29T12:23:48.258Z,405.00
2017-12-29T12:23:48.772Z,405.00
2017-12-29T12:23:49.304Z,405.00
2017-12-29T12:23:49.883Z,410.63
2017-12-29T12:23:50.424Z,405.00
2017-12-29T12:23:50.955Z,405.00
2017-12-29T12:23:51.476Z,405.00
2017-12-29T12:23:52.014Z,405.00
2017-12-29T12:23:52.526Z,405.00
2017-12-29T12:23:53.080Z,405.00
2017-12-29T12:23:53.635Z,405.00
2017-12-29T12:23:54.204Z,416.25
2017-12-29T12:23:54.734Z,410.63
2017-12-29T12:23:55.272Z,405.00
2017-12-29T12:23:55.803Z,405.00
2017-12-29T12:23:56.348Z,405.00
2017-12-29T12:23:56.894Z,405.00
2017-12-29T12:23:57.408Z,405.00
2017-12-29T12:23:57.934Z,410.63
2017-12-29T12:23:58.502Z,405.00
2017-12-29T12:23:59.022Z,405.00
2017-12-29T12:23:59.546Z,410.63
2017-12-29T12:24:00.128Z,405.00
2017-12-29T12:24:00.671Z,405.00
2017-12-29T12:24:01.196Z,410.63
2017-12-29T12:24:01.725Z,410.63
2017-12-29T12:24:02.264Z,405.00
2017-12-29T12:24:02.840Z,405.00
2017-12-29T12:24:03.384Z,410.63
2017-12-29T12:24:03.918Z,405.00
2017-12-29T12:24:04.437Z,405.00
2017-12-29T12:24:04.946Z,405.00
2017-12-29T12:24:05.474Z,405.00
2017-12-29T12:24:06.046Z,405.00
2017-12-29T12:24:06.581Z,405.00
2017-12-29T12:24:07.158Z,405.00
2017-12-29T12:24:07.692Z,410.63
2017-12-29T12:24:08.258Z,405.00
2017-12-29T12:24:08.846Z,410.63
2017-12-29T12:24:09.397Z,405.00
2017-12-29T12:24:09.956Z,399.38
2017-12-29T12:24:10.484Z,399.38
2017-12-29T12:24:11.012Z,399.38
2017-12-29T12:24:11.549Z,399.38
2017-12-29T12:24:12.057Z,399.38
2017-12-29T12:24:12.588Z,399.38
2017-12-29T12:24:13.160Z,393.75
2017-12-29T12:24:13.694Z,382.50
2017-12-29T12:24:14.210Z,393.75
2017-12-29T12:24:14.752Z,399.38
2017-12-29T12:24:15.308Z,399.38
2017-12-29T12:24:15.880Z,399.38
2017-12-29T12:24:16.422Z,399.38
2017-12-29T12:24:16.940Z,405.00
2017-12-29T12:24:17.462Z,405.00
2017-12-29T12:24:18.038Z,405.00
2017-12-29T12:24:18.584Z,405.00
2017-12-29T12:24:19.263Z,399.38
2017-12-29T12:24:19.634Z,399.38
2017-12-29T12:24:20.171Z,399.38
2017-12-29T12:24:20.690Z,399.38
2017-12-29T12:24:21.213Z,405.00
2017-12-29T12:24:21.734Z,399.38
2017-12-29T12:24:22.264Z,399.38
2017-12-29T12:24:22.844Z,399.38
2017-12-29T12:24:23.360Z,399.38
2017-12-29T12:24:23.902Z,399.38
2017-12-29T12:24:24.416Z,399.38
2017-12-29T12:24:24.947Z,399.38
2017-12-29T12:24:25.462Z,405.00
2017-12-29T12:24:26.046Z,399.38
2017-12-29T12:24:26.562Z,405.00
2017-12-29T12:24:27.083Z,399.38
2017-12-29T12:24:27.604Z,399.38
2017-12-29T12:24:28.134Z,399.38
2017-12-29T12:24:28.674Z,399.38
2017-12-29T12:24:29.232Z,405.00
2017-12-29T12:24:29.803Z,399.38
2017-12-29T12:24:30.344Z,399.38
2017-12-29T12:24:30.864Z,399.38
2017-12-29T12:24:31.382Z,399.38
2017-12-29T12:24:31.904Z,399.38
2017-12-29T12:24:32.432Z,405.00
2017-12-29T12:24:32.942Z,399.38
2017-12-29T12:24:33.466Z,399.38
2017-12-29T12:24:34.032Z,405.00
2017-12-29T12:24:34.542Z,399.38
2017-12-29T12:24:35.078Z,399.38
2017-12-29T12:24:35.596Z,405.00
2017-12-29T12:24:36.124Z,399.38
2017-12-29T12:24:36.652Z,393.75
2017-12-29T12:24:37.216Z,405.00
2017-12-29T12:24:37.782Z,399.38
2017-12-29T12:24:38.304Z,399.38
2017-12-29T12:24:38.834Z,399.38
2017-12-29T12:24:39.350Z,399.38
2017-12-29T12:24:39.886Z,393.75
2017-12-29T12:24:40.416Z,393.75
2017-12-29T12:24:40.936Z,393.75
2017-12-29T12:24:41.464Z,393.75
2017-12-29T12:24:41.986Z,393.75
2017-12-29T12:24:42.510Z,393.75
2017-12-29T12:24:43.034Z,393.75
2017-12-29T12:24:43.550Z,393.75
2017-12-29T12:24:44.119Z,393.75
2017-12-29T12:24:44.680Z,393.75
2017-12-29T12:24:45.220Z,393.75
2017-12-29T12:24:45.742Z,393.75
2017-12-29T12:24:46.265Z,393.75
2017-12-29T12:24:46.844Z,393.75
2017-12-29T12:24:47.388Z,393.75
2017-12-29T12:24:47.912Z,399.38
2017-12-29T12:24:48.434Z,393.75
2017-12-29T12:24:48.998Z,393.75
2017-12-29T12:24:49.520Z,399.38
2017-12-29T12:24:50.045Z,393.75
2017-12-29T12:24:50.586Z,393.75
2017-12-29T12:24:51.164Z,399.38
2017-12-29T12:24:51.714Z,399.38
2017-12-29T12:24:52.234Z,399.38
2017-12-29T12:24:52.752Z,393.75
2017-12-29T12:24:53.304Z,393.75
2017-12-29T12:24:53.878Z,393.75
2017-12-29T12:24:54.434Z,393.75
2017-12-29T12:24:54.964Z,393.75
2017-12-29T12:24:55.482Z,393.75
2017-12-29T12:24:56.004Z,393.75
2017-12-29T12:24:56.525Z,393.75
2017-12-29T12:24:57.044Z,393.75
2017-12-29T12:24:57.564Z,393.75
2017-12-29T12:24:58.084Z,393.75
2017-12-29T12:24:58.612Z,393.75
2017-12-29T12:24:59.142Z,393.75
2017-12-29T12:24:59.664Z,393.75
2017-12-29T12:25:00.182Z,393.75
2017-12-29T12:25:00.707Z,393.75
2017-12-29T12:25:01.220Z,393.75
2017-12-29T12:25:01.807Z,399.38
2017-12-29T12:25:02.340Z,399.38
2017-12-29T12:25:02.929Z,393.75
2017-12-29T12:25:03.452Z,393.75
2017-12-29T12:25:03.976Z,393.75
2017-12-29T12:25:04.508Z,393.75
2017-12-29T12:25:05.076Z,393.75
2017-12-29T12:25:05.636Z,399.38
2017-12-29T12:25:06.156Z,393.75
2017-12-29T12:25:06.673Z,393.75
2017-12-29T12:25:07.193Z,393.75
2017-12-29T12:25:07.714Z,393.75
2017-12-29T12:25:08.264Z,393.75
2017-12-29T12:25:08.792Z,393.75
2017-12-29T12:25:09.308Z,393.75
2017-12-29T12:25:09.844Z,393.75
2017-12-29T12:25:10.366Z,393.75
2017-12-29T12:25:10.894Z,399.38
2017-12-29T12:25:11.450Z,393.75
2017-12-29T12:25:12.024Z,399.38
2017-12-29T12:25:12.571Z,393.75
2017-12-29T12:25:13.148Z,393.75
2017-12-29T12:25:13.684Z,388.13
2017-12-29T12:25:14.203Z,388.13
2017-12-29T12:25:14.758Z,393.75
2017-12-29T12:25:15.319Z,388.13
2017-12-29T12:25:15.835Z,388.13
2017-12-29T12:25:16.362Z,388.13
2017-12-29T12:25:16.917Z,388.13
2017-12-29T12:25:17.468Z,393.75
2017-12-29T12:25:18.036Z,388.13
2017-12-29T12:25:18.572Z,388.13
2017-12-29T12:25:19.096Z,388.13
2017-12-29T12:25:19.637Z,388.13
2017-12-29T12:25:20.153Z,393.75
2017-12-29T12:25:20.674Z,388.13
2017-12-29T12:25:21.204Z,388.13
2017-12-29T12:25:21.720Z,388.13
2017-12-29T12:25:22.264Z,388.13
2017-12-29T12:25:22.842Z,393.75
2017-12-29T12:25:23.378Z,388.13
2017-12-29T12:25:23.904Z,388.13
2017-12-29T12:25:24.422Z,388.13
2017-12-29T12:25:25.005Z,388.13
2017-12-29T12:25:25.550Z,393.75
2017-12-29T12:25:26.072Z,388.13
2017-12-29T12:25:26.607Z,388.13
2017-12-29T12:25:27.149Z,388.13
2017-12-29T12:25:27.683Z,393.75
2017-12-29T12:25:28.202Z,388.13
2017-12-29T12:25:28.736Z,388.13
2017-12-29T12:25:29.291Z,393.75
2017-12-29T12:25:29.814Z,388.13
2017-12-29T12:25:30.338Z,393.75
2017-12-29T12:25:30.860Z,388.13
2017-12-29T12:25:31.386Z,388.13
2017-12-29T12:25:31.968Z,388.13
2017-12-29T12:25:32.492Z,393.75
2017-12-29T12:25:33.068Z,393.75
2017-12-29T12:25:33.642Z,388.13
2017-12-29T12:25:34.181Z,388.13
2017-12-29T12:25:34.760Z,388.13
2017-12-29T12:25:35.268Z,388.13
2017-12-29T12:25:35.797Z,388.13
2017-12-29T12:25:36.348Z,393.75
2017-12-29T12:25:36.880Z,388.13
2017-12-29T12:25:37.404Z,388.13
2017-12-29T12:25:37.962Z,388.13
2017-12-29T12:25:38.484Z,388.13
2017-12-29T12:25:39.004Z,393.75
2017-12-29T12:25:39.534Z,393.75
2017-12-29T12:25:40.098Z,388.13
2017-12-29T12:25:40.626Z,388.13
2017-12-29T12:25:41.142Z,393.75
2017-12-29T12:25:41.664Z,388.13
2017-12-29T12:25:42.182Z,388.13
2017-12-29T12:25:42.760Z,388.13
2017-12-29T12:25:43.290Z,388.13
2017-12-29T12:25:43.866Z,388.13
2017-12-29T12:25:44.385Z,393.75
2017-12-29T12:25:44.901Z,388.13
2017-12-29T12:25:45.470Z,388.13
2017-12-29T12:25:46.036Z,393.75
2017-12-29T12:25:46.596Z,388.13
2017-12-29T12:25:47.118Z,388.13
2017-12-29T12:25:47.636Z,393.75
2017-12-29T12:25:48.196Z,382.50
2017-12-29T12:25:48.758Z,382.50
2017-12-29T12:25:49.304Z,382.50
2017-12-29T12:25:49.823Z,388.13
2017-12-29T12:25:50.352Z,382.50
2017-12-29T12:25:50.872Z,382.50
2017-12-29T12:25:51.392Z,382.50
2017-12-29T12:25:51.933Z,388.13
2017-12-29T12:25:52.494Z,388.13
2017-12-29T12:25:53.014Z,388.13
2017-12-29T12:25:53.543Z,382.50
2017-12-29T12:25:54.108Z,376.88
2017-12-29T12:25:54.676Z,376.88
2017-12-29T12:25:55.218Z,376.88
2017-12-29T12:25:55.800Z,376.88
2017-12-29T12:25:56.322Z,382.50
2017-12-29T12:25:56.844Z,382.50
2017-12-29T12:25:57.376Z,382.50
2017-12-29T12:25:57.942Z,388.13
2017-12-29T12:25:58.454Z,382.50
2017-12-29T12:25:58.981Z,388.13
2017-12-29T12:25:59.570Z,382.50
2017-12-29T12:26:00.084Z,382.50
2017-12-29T12:26:00.612Z,382.50
2017-12-29T12:26:01.144Z,382.50
2017-12-29T12:26:01.710Z,382.50
2017-12-29T12:26:02.268Z,376.88
2017-12-29T12:26:02.802Z,376.88
2017-12-29T12:26:03.328Z,376.88
2017-12-29T12:26:03.844Z,382.50
2017-12-29T12:26:04.371Z,382.50
2017-12-29T12:26:04.918Z,382.50
2017-12-29T12:26:05.468Z,382.50
2017-12-29T12:26:06.022Z,388.13
2017-12-29T12:26:06.552Z,388.13
2017-12-29T12:26:07.074Z,382.50
2017-12-29T12:26:07.648Z,382.50
2017-12-29T12:26:08.184Z,382.50
2017-12-29T12:26:08.757Z,382.50
2017-12-29T12:26:09.271Z,382.50
2017-12-29T12:26:09.804Z,382.50
2017-12-29T12:26:10.322Z,388.13
2017-12-29T12:26:10.844Z,382.50
2017-12-29T12:26:11.384Z,382.50
2017-12-29T12:26:11.946Z,382.50
2017-12-29T12:26:12.524Z,382.50
2017-12-29T12:26:13.044Z,382.50
2017-12-29T12:26:13.562Z,382.50
2017-12-29T12:26:14.104Z,382.50
2017-12-29T12:26:14.658Z,382.50
2017-12-29T12:26:15.228Z,382.50
2017-12-29T12:26:15.754Z,382.50
2017-12-29T12:26:16.274Z,382.50
2017-12-29T12:26:16.792Z,382.50
2017-12-29T12:26:17.314Z,382.50
2017-12-29T12:26:17.828Z,382.50
2017-12-29T12:26:18.354Z,382.50
2017-12-29T12:26:18.927Z,382.50
2017-12-29T12:26:19.475Z,382.50
2017-12-29T12:26:20.026Z,388.13
2017-12-29T12:26:20.554Z,376.88
2017-12-29T12:26:21.074Z,382.50
2017-12-29T12:26:21.603Z,376.88
2017-12-29T12:26:22.126Z,376.88
2017-12-29T12:26:22.684Z,376.88
2017-12-29T12:26:23.204Z,382.50
2017-12-29T12:26:23.724Z,376.88
2017-12-29T12:26:24.242Z,382.50
2017-12-29T12:26:24.762Z,376.88
2017-12-29T12:26:25.304Z,382.50
2017-12-29T12:26:25.884Z,376.88
2017-12-29T12:26:26.428Z,382.50
2017-12-29T12:26:26.952Z,376.88
2017-12-29T12:26:27.484Z,376.88
2017-12-29T12:26:28.000Z,376.88
2017-12-29T12:26:28.526Z,388.13
2017-12-29T12:26:29.034Z,376.88
2017-12-29T12:26:29.558Z,388.13
2017-12-29T12:26:30.078Z,376.88
2017-12-29T12:26:30.603Z,376.88
2017-12-29T12:26:31.151Z,376.88
2017-12-29T12:26:31.684Z,376.88
2017-12-29T12:26:32.210Z,376.88
2017-12-29T12:26:32.750Z,376.88
2017-12-29T12:26:33.308Z,376.88
2017-12-29T12:26:33.914Z,376.88
2017-12-29T12:26:34.412Z,376.88
2017-12-29T12:26:34.936Z,376.88
2017-12-29T12:26:35.482Z,376.88
2017-12-29T12:26:36.046Z,376.88
2017-12-29T12:26:36.568Z,376.88
2017-12-29T12:26:37.078Z,376.88
2017-12-29T12:26:37.642Z,376.88
2017-12-29T12:26:38.160Z,376.88
2017-12-29T12:26:38.688Z,371.25
2017-12-29T12:26:39.222Z,360.00
2017-12-29T12:26:39.800Z,315.00
2017-12-29T12:26:40.336Z,253.13
2017-12-29T12:26:40.854Z,258.75
2017-12-29T12:26:41.374Z,258.75
2017-12-29T12:26:41.904Z,298.13
2017-12-29T12:26:42.435Z,320.63
2017-12-29T12:26:43.015Z,320.63
2017-12-29T12:26:43.572Z,320.63
2017-12-29T12:26:44.104Z,320.63
2017-12-29T12:26:44.624Z,326.25
2017-12-29T12:26:45.152Z,331.88
2017-12-29T12:26:45.686Z,326.25
2017-12-29T12:26:46.200Z,309.38
2017-12-29T12:26:46.774Z,275.63
2017-12-29T12:26:47.261Z,275.63
2017-12-29T12:26:47.794Z,292.50
2017-12-29T12:26:48.308Z,337.50
2017-12-29T12:26:48.850Z,354.38
2017-12-29T12:26:49.368Z,337.50
2017-12-29T12:26:49.883Z,331.88
2017-12-29T12:26:50.448Z,326.25
2017-12-29T12:26:50.986Z,326.25
2017-12-29T12:26:51.564Z,320.63
2017-12-29T12:26:52.074Z,309.38
2017-12-29T12:26:52.605Z,281.25
2017-12-29T12:26:53.144Z,264.38
2017-12-29T12:26:53.730Z,258.75
2017-12-29T12:26:54.268Z,258.75
2017-12-29T12:26:54.798Z,241.88
2017-12-29T12:26:55.328Z,185.63
2017-12-29T12:26:55.838Z,196.88
2017-12-29T12:26:56.356Z,213.75
2017-12-29T12:26:56.891Z,281.25
2017-12-29T12:26:57.412Z,281.25
2017-12-29T12:26:57.946Z,275.63
2017-12-29T12:26:58.512Z,281.25
2017-12-29T12:26:59.079Z,281.25
2017-12-29T12:26:59.604Z,281.25
2017-12-29T12:27:00.122Z,275.63
2017-12-29T12:27:00.684Z,275.63
2017-12-29T12:27:01.225Z,270.00
2017-12-29T12:27:01.752Z,275.63
2017-12-29T12:27:02.272Z,270.00
2017-12-29T12:27:02.833Z,270.00
2017-12-29T12:27:03.462Z,270.00
2017-12-29T12:27:04.041Z,270.00
2017-12-29T12:27:04.606Z,270.00
2017-12-29T12:27:05.124Z,270.00
2017-12-29T12:27:05.693Z,270.00
2017-12-29T12:27:06.272Z,270.00
2017-12-29T12:27:06.837Z,275.63
2017-12-29T12:27:07.389Z,270.00
2017-12-29T12:27:07.914Z,275.63
2017-12-29T12:27:08.481Z,270.00
2017-12-29T12:27:08.984Z,275.63
2017-12-29T12:27:09.562Z,270.00
2017-12-29T12:27:10.112Z,264.38
2017-12-29T12:27:10.644Z,264.38
2017-12-29T12:27:11.179Z,264.38
2017-12-29T12:27:11.724Z,264.38
2017-12-29T12:27:12.264Z,270.00
2017-12-29T12:27:12.822Z,270.00
2017-12-29T12:27:13.413Z,275.63
2017-12-29T12:27:14.038Z,275.63
2017-12-29T12:27:14.582Z,270.00
2017-12-29T12:27:15.098Z,264.38
2017-12-29T12:27:15.634Z,258.75
2017-12-29T12:27:16.292Z,241.88
2017-12-29T12:27:16.780Z,247.50
2017-12-29T12:27:17.424Z,241.88
2017-12-29T12:27:18.077Z,241.88
2017-12-29T12:27:18.610Z,241.88
2017-12-29T12:27:19.144Z,247.50
2017-12-29T12:27:19.718Z,247.50
2017-12-29T12:27:20.266Z,247.50
2017-12-29T12:27:20.844Z,247.50
2017-12-29T12:27:21.392Z,241.88
2017-12-29T12:27:21.912Z,247.50
2017-12-29T12:27:22.436Z,247.50
2017-12-29T12:27:22.984Z,247.50
2017-12-29T12:27:23.564Z,247.50
2017-12-29T12:27:24.074Z,247.50
2017-12-29T12:27:24.597Z,247.50
2017-12-29T12:27:25.148Z,247.50
2017-12-29T12:27:25.722Z,247.50
2017-12-29T12:27:26.244Z,253.13
2017-12-29T12:27:26.765Z,281.25
2017-12-29T12:27:27.304Z,275.63
2017-12-29T12:27:27.878Z,264.38
2017-12-29T12:27:28.439Z,264.38
2017-12-29T12:27:28.984Z,258.75
2017-12-29T12:27:29.563Z,253.13
2017-12-29T12:27:30.112Z,264.38
2017-12-29T12:27:30.622Z,258.75
2017-12-29T12:27:31.143Z,258.75
2017-12-29T12:27:31.717Z,253.13
2017-12-29T12:27:32.264Z,258.75
2017-12-29T12:27:32.836Z,258.75
2017-12-29T12:27:33.402Z,253.13
2017-12-29T12:27:33.912Z,275.63
2017-12-29T12:27:34.440Z,270.00
2017-12-29T12:27:34.984Z,303.75
2017-12-29T12:27:35.516Z,315.00
2017-12-29T12:27:36.036Z,275.63
2017-12-29T12:27:36.593Z,247.50
2017-12-29T12:27:37.146Z,253.13
2017-12-29T12:27:37.668Z,253.13
2017-12-29T12:27:38.188Z,247.50
2017-12-29T12:27:38.772Z,236.25
2017-12-29T12:27:39.292Z,236.25
2017-12-29T12:27:39.804Z,236.25
2017-12-29T12:27:40.332Z,236.25
2017-12-29T12:27:40.894Z,247.50
2017-12-29T12:27:41.480Z,247.50
2017-12-29T12:27:42.030Z,247.50
2017-12-29T12:27:42.594Z,247.50
2017-12-29T12:27:43.117Z,253.13
2017-12-29T12:27:43.628Z,247.50
2017-12-29T12:27:44.156Z,253.13
2017-12-29T12:27:44.684Z,253.13
2017-12-29T12:27:45.222Z,258.75
2017-12-29T12:27:45.807Z,264.38
2017-12-29T12:27:46.354Z,270.00
2017-12-29T12:27:46.872Z,270.00
2017-12-29T12:27:47.400Z,253.13
2017-12-29T12:27:47.938Z,247.50
2017-12-29T12:27:48.452Z,253.13
2017-12-29T12:27:48.980Z,253.13
2017-12-29T12:27:49.494Z,247.50
2017-12-29T12:27:50.024Z,247.50
2017-12-29T12:27:50.544Z,247.50
2017-12-29T12:27:51.068Z,253.13
2017-12-29T12:27:51.600Z,247.50
2017-12-29T12:27:52.132Z,241.88
2017-12-29T12:27:52.672Z,241.88
2017-12-29T12:27:53.224Z,236.25
2017-12-29T12:27:53.799Z,236.25
2017-12-29T12:27:54.324Z,236.25
2017-12-29T12:27:54.844Z,247.50
2017-12-29T12:27:55.383Z,236.25
2017-12-29T12:27:55.960Z,230.63
2017-12-29T12:27:56.489Z,230.63
2017-12-29T12:27:57.010Z,230.63
2017-12-29T12:27:57.550Z,236.25
2017-12-29T12:27:58.069Z,236.25
2017-12-29T12:27:58.608Z,241.88
2017-12-29T12:27:59.122Z,241.88
2017-12-29T12:27:59.654Z,236.25
2017-12-29T12:28:00.182Z,230.63
2017-12-29T12:28:00.762Z,230.63
2017-12-29T12:28:01.290Z,241.88
2017-12-29T12:28:01.832Z,247.50
2017-12-29T12:28:02.352Z,241.88
2017-12-29T12:28:02.868Z,236.25
2017-12-29T12:28:03.387Z,253.13
2017-12-29T12:28:03.950Z,253.13
2017-12-29T12:28:04.475Z,258.75
2017-12-29T12:28:05.034Z,258.75
2017-12-29T12:28:05.568Z,270.00
2017-12-29T12:28:06.118Z,264.38
2017-12-29T12:28:06.680Z,247.50
2017-12-29T12:28:07.218Z,247.50
2017-12-29T12:28:07.800Z,247.50
2017-12-29T12:28:08.334Z,253.13
2017-12-29T12:28:08.886Z,253.13
2017-12-29T12:28:09.482Z,258.75
2017-12-29T12:28:10.024Z,264.38
2017-12-29T12:28:10.592Z,264.38
2017-12-29T12:28:11.114Z,258.75
2017-12-29T12:28:11.680Z,275.63
2017-12-29T12:28:12.276Z,270.00
2017-12-29T12:28:12.836Z,264.38
2017-12-29T12:28:13.398Z,258.75
2017-12-29T12:28:13.908Z,258.75
2017-12-29T12:28:14.478Z,258.75
2017-12-29T12:28:14.948Z,298.13
2017-12-29T12:28:15.474Z,320.63
2017-12-29T12:28:16.068Z,326.25
2017-12-29T12:28:16.572Z,331.88
2017-12-29T12:28:17.155Z,309.38
2017-12-29T12:28:17.674Z,270.00
2017-12-29T12:28:18.200Z,292.50
2017-12-29T12:28:18.775Z,264.38
2017-12-29T12:28:19.302Z,202.50
2017-12-29T12:28:19.874Z,123.75
2017-12-29T12:28:20.390Z,163.13
2017-12-29T12:28:20.924Z,151.88
2017-12-29T12:28:21.503Z,247.50
2017-12-29T12:28:22.047Z,281.25
2017-12-29T12:28:22.648Z,202.50
2017-12-29T12:28:23.171Z,163.13
2017-12-29T12:28:23.667Z,180.00
2017-12-29T12:28:24.184Z,185.63
2017-12-29T12:28:24.801Z,185.63
2017-12-29T12:28:25.336Z,185.63
2017-12-29T12:28:25.872Z,168.75
2017-12-29T12:28:26.444Z,258.75
2017-12-29T12:28:26.970Z,286.88
2017-12-29T12:28:27.492Z,320.63
2017-12-29T12:28:28.016Z,337.50
2017-12-29T12:28:28.543Z,343.13
2017-12-29T12:28:29.063Z,348.75
2017-12-29T12:28:29.584Z,354.38
2017-12-29T12:28:30.120Z,354.38
2017-12-29T12:28:30.632Z,354.38
2017-12-29T12:28:31.151Z,354.38
2017-12-29T12:28:31.726Z,354.38
2017-12-29T12:28:32.274Z,354.38
2017-12-29T12:28:32.831Z,354.38
2017-12-29T12:28:33.362Z,354.38
2017-12-29T12:28:33.892Z,348.75
2017-12-29T12:28:34.434Z,354.38
2017-12-29T12:28:34.960Z,348.75
2017-12-29T12:28:35.475Z,348.75
2017-12-29T12:28:36.040Z,348.75
2017-12-29T12:28:36.604Z,348.75
2017-12-29T12:28:37.121Z,348.75
2017-12-29T12:28:37.642Z,348.75
2017-12-29T12:28:38.200Z,348.75
2017-12-29T12:28:38.768Z,348.75
2017-12-29T12:28:39.325Z,343.13
2017-12-29T12:28:39.832Z,348.75
2017-12-29T12:28:40.360Z,348.75
2017-12-29T12:28:40.914Z,343.13
2017-12-29T12:28:41.436Z,343.13
2017-12-29T12:28:41.976Z,348.75
2017-12-29T12:28:42.523Z,343.13
2017-12-29T12:28:43.062Z,343.13
2017-12-29T12:28:43.589Z,337.50
2017-12-29T12:28:44.124Z,343.13
2017-12-29T12:28:44.646Z,343.13
2017-12-29T12:28:45.172Z,343.13
2017-12-29T12:28:45.712Z,331.88
2017-12-29T12:28:46.286Z,331.88
2017-12-29T12:28:46.826Z,331.88
2017-12-29T12:28:47.353Z,331.88
2017-12-29T12:28:47.872Z,337.50
2017-12-29T12:28:48.481Z,343.13
2017-12-29T12:28:48.974Z,331.88
2017-12-29T12:28:49.494Z,343.13
2017-12-29T12:28:50.013Z,331.88
2017-12-29T12:28:50.548Z,337.50
2017-12-29T12:28:51.064Z,343.13
2017-12-29T12:28:51.584Z,348.75
2017-12-29T12:28:52.104Z,343.13
2017-12-29T12:28:52.693Z,337.50
2017-12-29T12:28:53.224Z,331.88
2017-12-29T12:28:53.740Z,320.63
2017-12-29T12:28:54.276Z,326.25
2017-12-29T12:28:54.810Z,303.75
2017-12-29T12:28:55.340Z,298.13
2017-12-29T12:28:55.864Z,309.38
2017-12-29T12:28:56.433Z,303.75
2017-12-29T12:28:57.004Z,303.75
2017-12-29T12:28:57.524Z,303.75
2017-12-29T12:29:19.022Z,303.75
2017-12-29T12:29:19.560Z,337.50
2017-12-29T12:29:20.127Z,337.50
2017-12-29T12:29:20.636Z,337.50
2017-12-29T12:29:21.154Z,337.50
2017-12-29T12:29:21.672Z,337.50